createdAt,value
2019-05-20T15:21:52.836Z,99180.08
2019-05-20T15:24:20.155Z,99188.38
2019-05-20T15:26:49.288Z,99186.27
2019-05-20T15:29:27.713Z,99186.39
2019-05-20T15:31:45.557Z,99194.25
2019-05-20T15:34:12.602Z,99197.36
2019-05-20T15:36:40.145Z,99197.49
2019-05-20T15:39:07.439Z,99197.38
2019-05-20T15:41:34.602Z,99197.62
2019-05-20T15:44:02.238Z,99199.59
2019-05-20T15:46:29.522Z,99195.89
2019-05-20T15:48:56.594Z,99191.58
2019-05-20T15:51:23.781Z,99190.00
2019-05-20T15:53:50.909Z,99183.81
2019-05-20T15:56:18.119Z,99181.55
2019-05-20T15:58:45.284Z,99175.58
2019-05-20T16:01:12.482Z,99178.62
2019-05-20T16:03:39.620Z,99177.04
2019-05-20T16:06:06.988Z,99176.38
2019-05-20T16:08:34.107Z,99178.54
2019-05-20T16:11:06.618Z,99182.27
2019-05-20T16:13:34.029Z,99176.59
2019-05-20T16:16:01.611Z,99174.48
2019-05-20T16:18:28.794Z,99181.37
2019-05-20T16:20:55.865Z,99180.58
2019-05-20T16:23:22.921Z,99183.89
2019-05-20T16:25:49.997Z,99186.71
2019-05-20T16:28:17.276Z,99186.11
2019-05-20T16:30:44.806Z,99184.73
2019-05-20T16:33:12.070Z,99184.98
2019-05-20T16:35:39.091Z,99179.77
2019-05-20T16:38:06.331Z,99187.12
2019-05-20T16:40:33.513Z,99190.61
2019-05-20T16:43:01.058Z,99181.77
2019-05-20T16:45:28.291Z,99193.63
2019-05-20T16:47:55.406Z,99190.39
2019-05-20T16:50:22.616Z,99200.86
2019-05-20T16:52:49.753Z,99204.69
2019-05-20T16:55:17.559Z,99198.68
2019-05-20T16:57:45.239Z,99200.19
2019-05-20T17:00:30.723Z,99205.91
2019-05-20T17:02:45.107Z,99203.91
2019-05-20T17:05:12.889Z,99207.34
2019-05-20T17:07:40.037Z,99199.02
2019-05-20T17:10:12.107Z,99203.47
2019-05-20T17:12:39.258Z,99212.48
2019-05-20T17:15:06.920Z,99214.31
2019-05-20T17:17:34.122Z,99213.55
2019-05-20T17:20:02.795Z,99206.17
2019-05-20T17:22:30.316Z,99205.88
2019-05-20T17:24:57.694Z,99212.84
2019-05-20T17:27:24.722Z,99209.22
2019-05-20T17:29:51.751Z,99207.44
2019-05-20T17:32:18.819Z,99212.44
2019-05-20T17:34:47.927Z,99212.97
2019-05-20T17:37:14.980Z,99222.34
2019-05-20T17:39:42.059Z,99214.50
2019-05-20T17:42:09.089Z,99220.33
2019-05-20T17:44:36.164Z,99220.08
2019-05-20T17:47:03.503Z,99221.20
2019-05-20T17:49:31.055Z,99219.78
2019-05-20T17:51:59.233Z,99225.14
2019-05-20T17:54:26.373Z,99224.55
2019-05-20T17:56:53.469Z,99230.66
2019-05-20T17:59:21.777Z,99223.08
2019-05-20T18:01:48.891Z,99224.55
2019-05-20T18:04:16.063Z,99219.84
2019-05-20T18:06:43.209Z,99224.20
2019-05-20T18:09:10.644Z,99223.30
2019-05-20T18:11:37.757Z,99230.48
2019-05-20T18:14:08.038Z,99223.78
2019-05-20T18:16:38.868Z,99235.71
2019-05-20T18:19:06.098Z,99229.02
2019-05-20T18:21:33.501Z,99233.39
2019-05-20T18:24:00.600Z,99243.32
2019-05-20T18:26:27.888Z,99244.22
2019-05-20T18:28:55.177Z,99247.85
2019-05-20T18:31:32.575Z,99245.26
2019-05-20T18:33:52.652Z,99251.61
2019-05-20T18:36:19.756Z,99251.16
2019-05-20T18:38:49.382Z,99260.94
2019-05-20T18:41:16.083Z,99269.58
2019-05-20T18:43:44.620Z,99266.02
2019-05-20T18:46:11.737Z,99266.94
2019-05-20T18:48:38.914Z,99267.92
2019-05-20T18:51:06.755Z,99269.66
2019-05-20T18:53:36.086Z,99268.87
2019-05-20T18:56:10.717Z,99270.72
2019-05-20T18:58:40.878Z,99269.87
2019-05-20T19:01:08.253Z,99279.70
2019-05-20T19:03:35.611Z,99284.48
2019-05-20T19:06:13.453Z,99271.90
2019-05-20T19:08:44.196Z,99271.77
2019-05-20T19:11:13.196Z,99275.34
2019-05-20T19:13:42.344Z,99270.66
2019-05-20T19:16:09.781Z,99265.94
2019-05-20T19:18:37.693Z,99267.63
2019-05-20T19:21:05.078Z,99269.84
2019-05-20T19:23:32.994Z,99264.44
2019-05-20T19:26:02.077Z,99260.43
2019-05-20T19:28:31.646Z,99256.86
2019-05-20T19:30:59.316Z,99263.53
2019-05-20T19:33:26.695Z,99261.40
2019-05-20T19:35:56.296Z,99260.03
2019-05-20T19:38:23.489Z,99262.51
2019-05-20T19:40:50.931Z,99262.62
2019-05-20T19:43:21.334Z,99265.66
2019-05-20T19:45:48.410Z,99271.36
2019-05-20T19:48:15.556Z,99272.82
2019-05-20T19:50:47.343Z,99273.34
2019-05-20T19:53:14.462Z,99273.62
2019-05-20T19:55:42.903Z,99276.11
2019-05-20T19:58:09.974Z,99281.33
2019-05-20T20:00:37.022Z,99294.00
2019-05-20T20:03:06.014Z,99297.11
2019-05-20T20:05:33.658Z,99289.23
2019-05-20T20:08:00.686Z,99294.03
2019-05-20T20:10:27.729Z,99298.02
2019-05-20T20:12:54.834Z,99298.38
2019-05-20T20:15:22.981Z,99302.60
2019-05-20T20:17:49.972Z,99301.58
2019-05-20T20:20:17.264Z,99298.13
2019-05-20T20:22:44.315Z,99303.08
2019-05-20T20:25:11.507Z,99304.06
2019-05-20T20:27:38.598Z,99314.50
2019-05-20T20:30:06.349Z,99317.59
2019-05-20T20:32:38.292Z,99321.98
2019-05-20T20:35:04.145Z,99322.41
2019-05-20T20:37:31.347Z,99321.15
2019-05-20T20:40:01.123Z,99323.36
2019-05-20T20:42:28.181Z,99326.09
2019-05-20T20:44:55.242Z,99323.71
2019-05-20T20:47:24.427Z,99317.52
2019-05-20T20:49:51.502Z,99321.58
2019-05-20T20:52:18.535Z,99325.69
2019-05-20T20:54:49.526Z,99321.58
2019-05-20T20:57:16.683Z,99322.41
2019-05-20T20:59:43.687Z,99315.66
2019-05-20T21:02:10.838Z,99320.32
2019-05-20T21:04:37.939Z,99318.81
2019-05-20T21:07:07.128Z,99323.71
2019-05-20T21:09:34.549Z,99317.39
2019-05-20T21:12:01.797Z,99323.44
2019-05-20T21:14:28.777Z,99326.52
2019-05-20T21:16:55.873Z,99318.50
2019-05-20T21:19:23.042Z,99326.05
2019-05-20T21:21:50.125Z,99322.68
2019-05-20T21:24:17.224Z,99322.95
2019-05-20T21:26:44.365Z,99336.59
2019-05-20T21:29:11.418Z,99337.63
2019-05-20T21:31:38.440Z,99331.81
2019-05-20T21:34:05.515Z,99338.06
2019-05-20T21:36:46.589Z,99330.78
2019-05-20T21:39:01.472Z,99336.74
2019-05-20T21:41:29.541Z,99332.95
2019-05-20T21:43:56.583Z,99337.22
2019-05-20T21:46:23.604Z,99341.45
2019-05-20T21:48:50.764Z,99337.89
2019-05-20T21:51:20.249Z,99332.00
2019-05-20T21:53:49.144Z,99330.70
2019-05-20T21:56:16.227Z,99324.50
2019-05-20T21:58:43.268Z,99325.88
2019-05-20T22:01:10.384Z,99333.70
2019-05-20T22:03:37.635Z,99333.22
2019-05-20T22:06:04.672Z,99331.92
2019-05-20T22:08:32.147Z,99332.55
2019-05-20T22:10:59.200Z,99341.80
2019-05-20T22:13:26.325Z,99340.28
2019-05-20T22:15:53.359Z,99333.02
2019-05-20T22:18:22.794Z,99336.51
2019-05-20T22:20:49.912Z,99335.36
2019-05-20T22:23:51.834Z,99328.02
2019-05-20T22:26:18.895Z,99319.98
2019-05-20T22:28:46.025Z,99320.11
2019-05-20T22:31:13.142Z,99325.32
2019-05-20T22:33:42.605Z,99325.80
2019-05-20T22:36:10.811Z,99318.88
2019-05-20T22:38:38.742Z,99323.63
2019-05-20T22:41:05.841Z,99325.28
2019-05-20T22:43:33.966Z,99328.95
2019-05-20T22:46:01.031Z,99328.95
2019-05-20T22:48:28.112Z,99329.70
2019-05-20T22:50:56.477Z,99323.45
2019-05-20T22:53:23.957Z,99322.52
2019-05-20T22:55:50.981Z,99324.77
2019-05-20T22:58:18.068Z,99328.74
2019-05-20T23:00:45.104Z,99320.99
2019-05-20T23:03:12.199Z,99329.16
2019-05-20T23:05:39.213Z,99319.40
2019-05-20T23:08:06.283Z,99319.95
2019-05-20T23:10:33.276Z,99312.14
2019-05-20T23:13:00.314Z,99311.39
2019-05-20T23:15:27.359Z,99311.52
2019-05-20T23:17:54.466Z,99310.69
2019-05-20T23:20:21.505Z,99316.25
2019-05-20T23:22:48.673Z,99311.87
2019-05-20T23:25:16.116Z,99311.12
2019-05-20T23:27:43.184Z,99314.95
2019-05-20T23:30:10.339Z,99322.77
2019-05-20T23:32:37.378Z,99313.52
2019-05-20T23:35:04.593Z,99310.41
2019-05-20T23:37:32.182Z,99312.07
2019-05-20T23:40:00.874Z,99314.20
2019-05-20T23:42:28.330Z,99314.20
2019-05-20T23:44:55.390Z,99311.59
2019-05-20T23:47:22.393Z,99318.79
2019-05-20T23:49:49.397Z,99314.87
2019-05-20T23:52:18.478Z,99316.89
2019-05-20T23:54:45.570Z,99311.68
2019-05-20T23:57:13.611Z,99315.11
2019-05-20T23:59:40.696Z,99313.66
